Terminal Aerodrome Forecast
Issued by NWS Atlanta, GA

Home | Current Version | Previous Version | Text Only | Print | Product List | Glossary On
Versions: 1 2 3 4 5 6 7 8 9 10 11 12 13 14 15 16 17 18
000
FTUS42 KFFC 261729
TAFMCN
TAF
KMCN 261729Z 2618/2718 21007KT P6SM SCT060 SCT100 BKN250
     FM262000 22008KT 6SM -SHRA SCT025 BKN045
      TEMPO 2620/2624 4SM -TSRA BKN025CB
     FM270200 25005KT P6SM VCSH SCT025 BKN040
     FM270900 28005KT 5SM BR SCT008 BKN015
     FM271400 31008KT P6SM SCT015 BKN025=

USA.gov is the U.S. government's official web portal to all federal, state and local government web resources and services.